sensor_id;sensor_type;location;lat;lon;timestamp;P1;durP1;ratioP1;P2;durP2;ratioP2
14474;SDS011;7323;50.848;4.334;2024-01-30T00:01:51;8.00;;;5.30;;
14474;SDS011;7323;50.848;4.334;2024-01-30T00:04:17;7.50;;;5.57;;
14474;SDS011;7323;50.848;4.334;2024-01-30T00:06:43;6.97;;;5.30;;
14474;SDS011;7323;50.848;4.334;2024-01-30T00:09:09;7.63;;;5.27;;
14474;SDS011;7323;50.848;4.334;2024-01-30T00:11:36;7.27;;;5.37;;
14474;SDS011;7323;50.848;4.334;2024-01-30T00:14:02;6.20;;;5.27;;
14474;SDS011;7323;50.848;4.334;2024-01-30T00:16:29;6.53;;;4.87;;
14474;SDS011;7323;50.848;4.334;2024-01-30T00:18:55;8.50;;;5.23;;
14474;SDS011;7323;50.848;4.334;2024-01-30T00:21:21;6.03;;;4.80;;
14474;SDS011;7323;50.848;4.334;2024-01-30T00:23:47;7.23;;;5.27;;
14474;SDS011;7323;50.848;4.334;2024-01-30T00:26:13;8.43;;;5.10;;
14474;SDS011;7323;50.848;4.334;2024-01-30T00:28:40;6.80;;;4.93;;
14474;SDS011;7323;50.848;4.334;2024-01-30T00:31:06;6.33;;;4.63;;
14474;SDS011;7323;50.848;4.334;2024-01-30T00:33:32;5.77;;;4.93;;
14474;SDS011;7323;50.848;4.334;2024-01-30T00:35:58;6.87;;;4.97;;
14474;SDS011;7323;50.848;4.334;2024-01-30T00:38:23;7.63;;;5.30;;
14474;SDS011;7323;50.848;4.334;2024-01-30T00:40:49;6.20;;;5.27;;
14474;SDS011;7323;50.848;4.334;2024-01-30T00:43:15;7.07;;;5.47;;
14474;SDS011;7323;50.848;4.334;2024-01-30T00:45:43;6.37;;;4.77;;
14474;SDS011;7323;50.848;4.334;2024-01-30T00:48:09;9.47;;;5.17;;
14474;SDS011;7323;50.848;4.334;2024-01-30T00:50:35;8.47;;;5.00;;
14474;SDS011;7323;50.848;4.334;2024-01-30T00:53:00;8.27;;;5.20;;
14474;SDS011;7323;50.848;4.334;2024-01-30T00:55:26;10.23;;;5.40;;
14474;SDS011;7323;50.848;4.334;2024-01-30T00:57:52;7.00;;;4.90;;
14474;SDS011;7323;50.848;4.334;2024-01-30T01:00:17;7.53;;;4.93;;
14474;SDS011;7323;50.848;4.334;2024-01-30T01:02:43;7.03;;;5.13;;
14474;SDS011;7323;50.848;4.334;2024-01-30T01:05:09;6.60;;;5.07;;
14474;SDS011;7323;50.848;4.334;2024-01-30T01:07:35;8.37;;;4.97;;
14474;SDS011;7323;50.848;4.334;2024-01-30T01:10:01;6.83;;;4.90;;
14474;SDS011;7323;50.848;4.334;2024-01-30T01:12:27;5.97;;;4.50;;
14474;SDS011;7323;50.848;4.334;2024-01-30T01:14:53;8.77;;;5.27;;
14474;SDS011;7323;50.848;4.334;2024-01-30T01:17:19;7.67;;;4.97;;
14474;SDS011;7323;50.848;4.334;2024-01-30T01:19:44;7.37;;;5.00;;
14474;SDS011;7323;50.848;4.334;2024-01-30T01:22:10;5.87;;;4.57;;
14474;SDS011;7323;50.848;4.334;2024-01-30T01:24:36;7.63;;;5.30;;
14474;SDS011;7323;50.848;4.334;2024-01-30T01:27:02;11.07;;;5.40;;
14474;SDS011;7323;50.848;4.334;2024-01-30T01:29:28;6.73;;;5.07;;
14474;SDS011;7323;50.848;4.334;2024-01-30T01:31:54;6.37;;;4.47;;
14474;SDS011;7323;50.848;4.334;2024-01-30T01:34:21;8.53;;;5.40;;
14474;SDS011;7323;50.848;4.334;2024-01-30T01:36:47;5.50;;;4.30;;
14474;SDS011;7323;50.848;4.334;2024-01-30T01:39:12;6.60;;;4.80;;
14474;SDS011;7323;50.848;4.334;2024-01-30T01:41:38;5.83;;;4.50;;
14474;SDS011;7323;50.848;4.334;2024-01-30T01:44:04;5.23;;;4.70;;
14474;SDS011;7323;50.848;4.334;2024-01-30T01:46:30;8.67;;;5.30;;
14474;SDS011;7323;50.848;4.334;2024-01-30T01:48:59;6.37;;;4.63;;
14474;SDS011;7323;50.848;4.334;2024-01-30T01:51:27;6.83;;;4.97;;
14474;SDS011;7323;50.848;4.334;2024-01-30T01:53:54;6.63;;;4.70;;
14474;SDS011;7323;50.848;4.334;2024-01-30T01:56:21;9.00;;;4.60;;
14474;SDS011;7323;50.848;4.334;2024-01-30T01:58:51;5.83;;;4.10;;
14474;SDS011;7323;50.848;4.334;2024-01-30T02:01:19;7.37;;;4.80;;
14474;SDS011;7323;50.848;4.334;2024-01-30T02:03:47;4.90;;;4.30;;
14474;SDS011;7323;50.848;4.334;2024-01-30T02:06:16;8.10;;;5.00;;
14474;SDS011;7323;50.848;4.334;2024-01-30T02:08:42;7.10;;;4.47;;
14474;SDS011;7323;50.848;4.334;2024-01-30T02:11:08;8.17;;;5.27;;
14474;SDS011;7323;50.848;4.334;2024-01-30T02:13:35;7.80;;;4.77;;
14474;SDS011;7323;50.848;4.334;2024-01-30T02:16:01;7.83;;;4.70;;
14474;SDS011;7323;50.848;4.334;2024-01-30T02:18:27;8.30;;;5.13;;
14474;SDS011;7323;50.848;4.334;2024-01-30T02:20:53;7.90;;;5.20;;
14474;SDS011;7323;50.848;4.334;2024-01-30T02:23:19;8.33;;;4.87;;
14474;SDS011;7323;50.848;4.334;2024-01-30T02:25:45;8.50;;;4.73;;
14474;SDS011;7323;50.848;4.334;2024-01-30T02:28:11;5.77;;;4.90;;
14474;SDS011;7323;50.848;4.334;2024-01-30T02:30:37;6.50;;;4.90;;
14474;SDS011;7323;50.848;4.334;2024-01-30T02:33:09;6.60;;;4.87;;
14474;SDS011;7323;50.848;4.334;2024-01-30T02:35:35;6.17;;;4.40;;
14474;SDS011;7323;50.848;4.334;2024-01-30T02:38:01;9.97;;;5.40;;
14474;SDS011;7323;50.848;4.334;2024-01-30T02:40:26;7.00;;;4.90;;
14474;SDS011;7323;50.848;4.334;2024-01-30T02:42:52;7.27;;;4.80;;
14474;SDS011;7323;50.848;4.334;2024-01-30T02:45:18;8.97;;;4.80;;
14474;SDS011;7323;50.848;4.334;2024-01-30T02:47:44;7.50;;;4.70;;
14474;SDS011;7323;50.848;4.334;2024-01-30T02:50:10;7.57;;;5.27;;
14474;SDS011;7323;50.848;4.334;2024-01-30T02:52:36;7.57;;;5.00;;
14474;SDS011;7323;50.848;4.334;2024-01-30T02:55:03;7.20;;;4.40;;
14474;SDS011;7323;50.848;4.334;2024-01-30T02:57:29;7.80;;;4.40;;
14474;SDS011;7323;50.848;4.334;2024-01-30T02:59:54;10.67;;;5.00;;
14474;SDS011;7323;50.848;4.334;2024-01-30T03:02:20;7.00;;;4.83;;
14474;SDS011;7323;50.848;4.334;2024-01-30T03:04:46;9.67;;;5.10;;
14474;SDS011;7323;50.848;4.334;2024-01-30T03:07:12;5.87;;;4.43;;
14474;SDS011;7323;50.848;4.334;2024-01-30T03:09:38;9.07;;;4.70;;
14474;SDS011;7323;50.848;4.334;2024-01-30T03:12:03;6.43;;;4.90;;
14474;SDS011;7323;50.848;4.334;2024-01-30T03:14:30;10.93;;;5.70;;
14474;SDS011;7323;50.848;4.334;2024-01-30T03:16:56;7.07;;;5.17;;
14474;SDS011;7323;50.848;4.334;2024-01-30T03:19:22;7.47;;;4.67;;
14474;SDS011;7323;50.848;4.334;2024-01-30T03:21:48;6.57;;;4.67;;
14474;SDS011;7323;50.848;4.334;2024-01-30T03:24:14;8.67;;;5.07;;
14474;SDS011;7323;50.848;4.334;2024-01-30T03:26:39;7.60;;;4.87;;
14474;SDS011;7323;50.848;4.334;2024-01-30T03:29:06;7.43;;;5.40;;
14474;SDS011;7323;50.848;4.334;2024-01-30T03:31:32;6.53;;;4.87;;
14474;SDS011;7323;50.848;4.334;2024-01-30T03:33:58;6.40;;;4.67;;
14474;SDS011;7323;50.848;4.334;2024-01-30T03:36:24;7.70;;;4.90;;
14474;SDS011;7323;50.848;4.334;2024-01-30T03:38:49;6.47;;;4.37;;
14474;SDS011;7323;50.848;4.334;2024-01-30T03:41:15;11.20;;;4.83;;
14474;SDS011;7323;50.848;4.334;2024-01-30T03:43:41;7.83;;;4.93;;
14474;SDS011;7323;50.848;4.334;2024-01-30T03:46:06;6.90;;;5.00;;
14474;SDS011;7323;50.848;4.334;2024-01-30T03:48:32;8.23;;;5.10;;
14474;SDS011;7323;50.848;4.334;2024-01-30T03:50:57;6.17;;;4.47;;
14474;SDS011;7323;50.848;4.334;2024-01-30T03:53:23;7.93;;;4.77;;
14474;SDS011;7323;50.848;4.334;2024-01-30T03:55:49;7.63;;;4.73;;
14474;SDS011;7323;50.848;4.334;2024-01-30T03:58:15;7.00;;;4.80;;
14474;SDS011;7323;50.848;4.334;2024-01-30T04:00:40;7.87;;;5.33;;
14474;SDS011;7323;50.848;4.334;2024-01-30T04:03:06;7.43;;;5.20;;
14474;SDS011;7323;50.848;4.334;2024-01-30T04:05:32;8.50;;;4.87;;
14474;SDS011;7323;50.848;4.334;2024-01-30T04:07:57;8.33;;;5.30;;
14474;SDS011;7323;50.848;4.334;2024-01-30T04:10:24;7.83;;;5.37;;
14474;SDS011;7323;50.848;4.334;2024-01-30T04:12:50;6.60;;;5.13;;
14474;SDS011;7323;50.848;4.334;2024-01-30T04:15:16;7.77;;;4.80;;
14474;SDS011;7323;50.848;4.334;2024-01-30T04:17:43;7.87;;;5.00;;
14474;SDS011;7323;50.848;4.334;2024-01-30T04:20:13;8.10;;;4.67;;
14474;SDS011;7323;50.848;4.334;2024-01-30T04:22:41;7.37;;;5.00;;
14474;SDS011;7323;50.848;4.334;2024-01-30T04:25:11;8.03;;;5.50;;
14474;SDS011;7323;50.848;4.334;2024-01-30T04:27:37;8.50;;;5.37;;
14474;SDS011;7323;50.848;4.334;2024-01-30T04:30:03;8.47;;;5.50;;
14474;SDS011;7323;50.848;4.334;2024-01-30T04:32:30;7.90;;;5.27;;
14474;SDS011;7323;50.848;4.334;2024-01-30T04:34:55;7.63;;;5.17;;
14474;SDS011;7323;50.848;4.334;2024-01-30T04:37:21;8.03;;;5.27;;
14474;SDS011;7323;50.848;4.334;2024-01-30T04:39:47;6.57;;;4.80;;
14474;SDS011;7323;50.848;4.334;2024-01-30T04:42:12;8.47;;;5.47;;
14474;SDS011;7323;50.848;4.334;2024-01-30T04:44:38;7.73;;;5.07;;
14474;SDS011;7323;50.848;4.334;2024-01-30T04:47:03;8.43;;;5.87;;
14474;SDS011;7323;50.848;4.334;2024-01-30T04:49:31;8.70;;;5.17;;
14474;SDS011;7323;50.848;4.334;2024-01-30T04:51:57;6.33;;;5.00;;
14474;SDS011;7323;50.848;4.334;2024-01-30T04:54:23;7.20;;;5.50;;
14474;SDS011;7323;50.848;4.334;2024-01-30T04:56:49;7.37;;;5.27;;
14474;SDS011;7323;50.848;4.334;2024-01-30T04:59:15;7.80;;;5.50;;
14474;SDS011;7323;50.848;4.334;2024-01-30T05:01:40;8.70;;;5.40;;
14474;SDS011;7323;50.848;4.334;2024-01-30T05:04:09;7.93;;;5.40;;
14474;SDS011;7323;50.848;4.334;2024-01-30T05:06:36;9.03;;;5.77;;
14474;SDS011;7323;50.848;4.334;2024-01-30T05:09:02;8.20;;;5.60;;
14474;SDS011;7323;50.848;4.334;2024-01-30T05:11:29;7.63;;;5.40;;
14474;SDS011;7323;50.848;4.334;2024-01-30T05:13:55;7.93;;;5.00;;
14474;SDS011;7323;50.848;4.334;2024-01-30T05:16:21;9.73;;;5.40;;
14474;SDS011;7323;50.848;4.334;2024-01-30T05:18:47;7.13;;;5.30;;
14474;SDS011;7323;50.848;4.334;2024-01-30T05:21:12;8.03;;;5.50;;
14474;SDS011;7323;50.848;4.334;2024-01-30T05:23:38;9.53;;;5.27;;
14474;SDS011;7323;50.848;4.334;2024-01-30T05:26:05;7.40;;;5.37;;
14474;SDS011;7323;50.848;4.334;2024-01-30T05:28:31;8.27;;;6.10;;
14474;SDS011;7323;50.848;4.334;2024-01-30T05:30:57;6.73;;;4.97;;
14474;SDS011;7323;50.848;4.334;2024-01-30T05:33:22;8.77;;;5.60;;
14474;SDS011;7323;50.848;4.334;2024-01-30T05:35:48;6.93;;;5.47;;
14474;SDS011;7323;50.848;4.334;2024-01-30T05:38:15;8.37;;;5.67;;
14474;SDS011;7323;50.848;4.334;2024-01-30T05:40:41;6.27;;;5.57;;
14474;SDS011;7323;50.848;4.334;2024-01-30T05:43:07;11.40;;;5.27;;
14474;SDS011;7323;50.848;4.334;2024-01-30T05:45:33;8.27;;;5.97;;
14474;SDS011;7323;50.848;4.334;2024-01-30T05:48:00;9.50;;;6.00;;
14474;SDS011;7323;50.848;4.334;2024-01-30T05:50:26;6.43;;;5.40;;
14474;SDS011;7323;50.848;4.334;2024-01-30T05:52:52;8.53;;;5.60;;
14474;SDS011;7323;50.848;4.334;2024-01-30T05:55:17;7.80;;;5.43;;
14474;SDS011;7323;50.848;4.334;2024-01-30T05:57:43;8.63;;;5.43;;
14474;SDS011;7323;50.848;4.334;2024-01-30T06:00:09;8.60;;;5.63;;
14474;SDS011;7323;50.848;4.334;2024-01-30T06:02:35;8.17;;;5.63;;
14474;SDS011;7323;50.848;4.334;2024-01-30T06:05:01;10.20;;;6.50;;
14474;SDS011;7323;50.848;4.334;2024-01-30T06:07:26;8.43;;;5.20;;
14474;SDS011;7323;50.848;4.334;2024-01-30T06:09:52;8.87;;;6.00;;
14474;SDS011;7323;50.848;4.334;2024-01-30T06:12:18;9.93;;;6.23;;
14474;SDS011;7323;50.848;4.334;2024-01-30T06:14:44;9.83;;;6.10;;
14474;SDS011;7323;50.848;4.334;2024-01-30T06:17:09;8.10;;;5.73;;
14474;SDS011;7323;50.848;4.334;2024-01-30T06:19:37;9.17;;;6.00;;
14474;SDS011;7323;50.848;4.334;2024-01-30T06:22:06;9.27;;;6.10;;
14474;SDS011;7323;50.848;4.334;2024-01-30T06:24:33;9.30;;;6.27;;
14474;SDS011;7323;50.848;4.334;2024-01-30T06:27:00;7.97;;;6.20;;
14474;SDS011;7323;50.848;4.334;2024-01-30T06:29:26;10.43;;;5.90;;
14474;SDS011;7323;50.848;4.334;2024-01-30T06:31:51;8.93;;;6.17;;
14474;SDS011;7323;50.848;4.334;2024-01-30T06:34:17;8.27;;;5.90;;
14474;SDS011;7323;50.848;4.334;2024-01-30T06:36:43;8.30;;;5.87;;
14474;SDS011;7323;50.848;4.334;2024-01-30T06:39:08;8.43;;;6.47;;
14474;SDS011;7323;50.848;4.334;2024-01-30T06:41:34;8.70;;;5.80;;
14474;SDS011;7323;50.848;4.334;2024-01-30T06:44:02;9.00;;;6.10;;
14474;SDS011;7323;50.848;4.334;2024-01-30T06:46:29;9.23;;;6.30;;
14474;SDS011;7323;50.848;4.334;2024-01-30T06:48:54;9.13;;;5.53;;
14474;SDS011;7323;50.848;4.334;2024-01-30T06:51:20;10.77;;;6.43;;
14474;SDS011;7323;50.848;4.334;2024-01-30T06:53:46;9.97;;;5.67;;
14474;SDS011;7323;50.848;4.334;2024-01-30T06:56:12;8.50;;;6.03;;
14474;SDS011;7323;50.848;4.334;2024-01-30T06:58:38;10.53;;;6.13;;
14474;SDS011;7323;50.848;4.334;2024-01-30T07:01:04;16.20;;;6.03;;
14474;SDS011;7323;50.848;4.334;2024-01-30T07:03:29;8.97;;;6.23;;
14474;SDS011;7323;50.848;4.334;2024-01-30T07:05:55;10.30;;;6.70;;
14474;SDS011;7323;50.848;4.334;2024-01-30T07:08:21;8.23;;;6.20;;
14474;SDS011;7323;50.848;4.334;2024-01-30T07:10:47;10.33;;;6.30;;
14474;SDS011;7323;50.848;4.334;2024-01-30T07:13:13;10.70;;;5.90;;
14474;SDS011;7323;50.848;4.334;2024-01-30T07:15:41;12.30;;;5.73;;
14474;SDS011;7323;50.848;4.334;2024-01-30T07:18:07;9.47;;;5.70;;
14474;SDS011;7323;50.848;4.334;2024-01-30T07:20:34;8.07;;;5.97;;
14474;SDS011;7323;50.848;4.334;2024-01-30T07:23:00;10.20;;;6.13;;
14474;SDS011;7323;50.848;4.334;2024-01-30T07:25:27;9.97;;;6.40;;
14474;SDS011;7323;50.848;4.334;2024-01-30T07:27:54;9.97;;;5.83;;
14474;SDS011;7323;50.848;4.334;2024-01-30T07:30:20;9.87;;;6.03;;
14474;SDS011;7323;50.848;4.334;2024-01-30T07:32:46;8.93;;;6.50;;
14474;SDS011;7323;50.848;4.334;2024-01-30T07:35:13;9.77;;;6.33;;
14474;SDS011;7323;50.848;4.334;2024-01-30T07:37:39;10.10;;;6.87;;
14474;SDS011;7323;50.848;4.334;2024-01-30T07:40:05;13.27;;;6.57;;
14474;SDS011;7323;50.848;4.334;2024-01-30T07:42:31;10.23;;;6.10;;
14474;SDS011;7323;50.848;4.334;2024-01-30T07:44:58;9.03;;;6.53;;
14474;SDS011;7323;50.848;4.334;2024-01-30T07:47:24;11.47;;;6.87;;
14474;SDS011;7323;50.848;4.334;2024-01-30T07:49:50;9.83;;;6.63;;
14474;SDS011;7323;50.848;4.334;2024-01-30T07:52:16;12.10;;;6.43;;
14474;SDS011;7323;50.848;4.334;2024-01-30T07:54:48;8.33;;;5.87;;
14474;SDS011;7323;50.848;4.334;2024-01-30T07:57:14;18.27;;;6.90;;
14474;SDS011;7323;50.848;4.334;2024-01-30T07:59:43;14.23;;;6.70;;
14474;SDS011;7323;50.848;4.334;2024-01-30T08:02:10;7.50;;;6.47;;
14474;SDS011;7323;50.848;4.334;2024-01-30T08:04:39;10.20;;;6.80;;
14474;SDS011;7323;50.848;4.334;2024-01-30T08:07:05;11.27;;;6.93;;
14474;SDS011;7323;50.848;4.334;2024-01-30T08:09:30;11.60;;;6.70;;
14474;SDS011;7323;50.848;4.334;2024-01-30T08:11:56;10.47;;;7.33;;
14474;SDS011;7323;50.848;4.334;2024-01-30T08:14:22;15.03;;;7.33;;
14474;SDS011;7323;50.848;4.334;2024-01-30T08:16:47;10.30;;;6.73;;
14474;SDS011;7323;50.848;4.334;2024-01-30T08:19:14;12.10;;;7.13;;
14474;SDS011;7323;50.848;4.334;2024-01-30T08:21:40;11.60;;;7.80;;
14474;SDS011;7323;50.848;4.334;2024-01-30T08:24:07;12.20;;;7.93;;
14474;SDS011;7323;50.848;4.334;2024-01-30T08:26:33;15.20;;;7.73;;
14474;SDS011;7323;50.848;4.334;2024-01-30T08:28:59;11.30;;;7.20;;
14474;SDS011;7323;50.848;4.334;2024-01-30T08:31:25;13.07;;;7.13;;
14474;SDS011;7323;50.848;4.334;2024-01-30T08:33:51;14.83;;;8.33;;
14474;SDS011;7323;50.848;4.334;2024-01-30T08:36:17;10.63;;;6.73;;
14474;SDS011;7323;50.848;4.334;2024-01-30T08:38:42;11.93;;;7.67;;
14474;SDS011;7323;50.848;4.334;2024-01-30T08:41:08;11.57;;;7.10;;
14474;SDS011;7323;50.848;4.334;2024-01-30T08:43:34;14.17;;;7.47;;
14474;SDS011;7323;50.848;4.334;2024-01-30T08:46:01;14.47;;;8.37;;
14474;SDS011;7323;50.848;4.334;2024-01-30T08:48:27;15.27;;;7.20;;
14474;SDS011;7323;50.848;4.334;2024-01-30T08:50:53;14.60;;;8.67;;
14474;SDS011;7323;50.848;4.334;2024-01-30T08:53:19;14.93;;;7.63;;
14474;SDS011;7323;50.848;4.334;2024-01-30T08:55:45;12.63;;;7.37;;
14474;SDS011;7323;50.848;4.334;2024-01-30T08:58:10;13.63;;;8.77;;
14474;SDS011;7323;50.848;4.334;2024-01-30T09:00:36;13.40;;;7.30;;
14474;SDS011;7323;50.848;4.334;2024-01-30T09:03:02;11.17;;;7.17;;
14474;SDS011;7323;50.848;4.334;2024-01-30T09:05:28;12.93;;;7.27;;
14474;SDS011;7323;50.848;4.334;2024-01-30T09:07:54;10.90;;;7.53;;
14474;SDS011;7323;50.848;4.334;2024-01-30T09:10:20;14.57;;;6.63;;
14474;SDS011;7323;50.848;4.334;2024-01-30T09:12:46;10.30;;;6.97;;
14474;SDS011;7323;50.848;4.334;2024-01-30T09:15:12;10.00;;;6.33;;
14474;SDS011;7323;50.848;4.334;2024-01-30T09:17:40;11.70;;;7.07;;
14474;SDS011;7323;50.848;4.334;2024-01-30T09:20:05;11.60;;;7.27;;
14474;SDS011;7323;50.848;4.334;2024-01-30T09:22:31;11.70;;;7.60;;
14474;SDS011;7323;50.848;4.334;2024-01-30T09:24:57;13.63;;;7.50;;
14474;SDS011;7323;50.848;4.334;2024-01-30T09:27:23;12.13;;;8.10;;
14474;SDS011;7323;50.848;4.334;2024-01-30T09:29:49;13.57;;;7.53;;
14474;SDS011;7323;50.848;4.334;2024-01-30T09:32:14;13.93;;;7.60;;
14474;SDS011;7323;50.848;4.334;2024-01-30T09:34:40;17.20;;;8.40;;
14474;SDS011;7323;50.848;4.334;2024-01-30T09:37:07;14.97;;;7.77;;
14474;SDS011;7323;50.848;4.334;2024-01-30T09:39:32;16.57;;;8.70;;
14474;SDS011;7323;50.848;4.334;2024-01-30T09:42:05;12.77;;;7.87;;
14474;SDS011;7323;50.848;4.334;2024-01-30T09:44:43;13.07;;;8.07;;
14474;SDS011;7323;50.848;4.334;2024-01-30T09:47:09;15.70;;;8.27;;
14474;SDS011;7323;50.848;4.334;2024-01-30T09:49:36;14.30;;;8.70;;
14474;SDS011;7323;50.848;4.334;2024-01-30T09:52:03;11.83;;;8.43;;
14474;SDS011;7323;50.848;4.334;2024-01-30T09:54:30;17.00;;;8.50;;
14474;SDS011;7323;50.848;4.334;2024-01-30T09:56:57;16.53;;;8.67;;
14474;SDS011;7323;50.848;4.334;2024-01-30T09:59:23;12.83;;;8.53;;
14474;SDS011;7323;50.848;4.334;2024-01-30T10:01:50;17.60;;;9.77;;
14474;SDS011;7323;50.848;4.334;2024-01-30T10:04:17;13.77;;;8.87;;
14474;SDS011;7323;50.848;4.334;2024-01-30T10:06:42;14.23;;;9.27;;
14474;SDS011;7323;50.848;4.334;2024-01-30T10:09:08;16.40;;;9.17;;
14474;SDS011;7323;50.848;4.334;2024-01-30T10:11:38;13.17;;;9.00;;
14474;SDS011;7323;50.848;4.334;2024-01-30T10:14:04;15.87;;;9.87;;
14474;SDS011;7323;50.848;4.334;2024-01-30T10:16:29;15.70;;;9.03;;
14474;SDS011;7323;50.848;4.334;2024-01-30T10:18:55;16.30;;;10.33;;
14474;SDS011;7323;50.848;4.334;2024-01-30T10:21:21;11.73;;;8.57;;
14474;SDS011;7323;50.848;4.334;2024-01-30T10:23:47;15.47;;;9.73;;
14474;SDS011;7323;50.848;4.334;2024-01-30T10:26:13;15.57;;;9.77;;
14474;SDS011;7323;50.848;4.334;2024-01-30T10:28:42;15.20;;;9.77;;
14474;SDS011;7323;50.848;4.334;2024-01-30T10:31:08;16.47;;;11.20;;
14474;SDS011;7323;50.848;4.334;2024-01-30T10:33:35;13.43;;;9.17;;
14474;SDS011;7323;50.848;4.334;2024-01-30T10:36:02;19.60;;;11.53;;
14474;SDS011;7323;50.848;4.334;2024-01-30T10:38:29;16.73;;;10.97;;
14474;SDS011;7323;50.848;4.334;2024-01-30T10:40:57;17.27;;;11.63;;
14474;SDS011;7323;50.848;4.334;2024-01-30T10:43:31;20.60;;;12.27;;
14474;SDS011;7323;50.848;4.334;2024-01-30T10:46:06;19.20;;;12.37;;
14474;SDS011;7323;50.848;4.334;2024-01-30T10:49:06;17.27;;;12.07;;
14474;SDS011;7323;50.848;4.334;2024-01-30T10:51:31;18.20;;;10.87;;
14474;SDS011;7323;50.848;4.334;2024-01-30T10:53:59;14.30;;;9.33;;
14474;SDS011;7323;50.848;4.334;2024-01-30T10:56:26;13.80;;;9.07;;
14474;SDS011;7323;50.848;4.334;2024-01-30T10:58:53;12.83;;;8.03;;
14474;SDS011;7323;50.848;4.334;2024-01-30T11:01:22;11.47;;;7.33;;
14474;SDS011;7323;50.848;4.334;2024-01-30T11:03:53;10.80;;;7.13;;
14474;SDS011;7323;50.848;4.334;2024-01-30T11:06:26;12.93;;;7.27;;
14474;SDS011;7323;50.848;4.334;2024-01-30T11:09:04;14.67;;;7.27;;
14474;SDS011;7323;50.848;4.334;2024-01-30T11:11:50;11.00;;;6.27;;
14474;SDS011;7323;50.848;4.334;2024-01-30T11:14:27;10.60;;;3.20;;
14474;SDS011;7323;50.848;4.334;2024-01-30T11:16:57;5.87;;;2.80;;
14474;SDS011;7323;50.848;4.334;2024-01-30T11:19:26;7.57;;;3.13;;
14474;SDS011;7323;50.848;4.334;2024-01-30T11:21:56;7.13;;;2.60;;
14474;SDS011;7323;50.848;4.334;2024-01-30T11:24:24;5.50;;;2.07;;
14474;SDS011;7323;50.848;4.334;2024-01-30T11:26:58;6.77;;;2.90;;
14474;SDS011;7323;50.848;4.334;2024-01-30T11:29:27;6.17;;;2.77;;
14474;SDS011;7323;50.848;4.334;2024-01-30T11:31:57;5.57;;;2.07;;
14474;SDS011;7323;50.848;4.334;2024-01-30T11:34:24;3.70;;;1.70;;
14474;SDS011;7323;50.848;4.334;2024-01-30T11:36:55;3.83;;;1.90;;
14474;SDS011;7323;50.848;4.334;2024-01-30T11:39:25;4.80;;;1.40;;
14474;SDS011;7323;50.848;4.334;2024-01-30T11:41:51;5.07;;;1.20;;
14474;SDS011;7323;50.848;4.334;2024-01-30T11:44:19;3.83;;;1.30;;
14474;SDS011;7323;50.848;4.334;2024-01-30T11:46:49;3.77;;;1.20;;
14474;SDS011;7323;50.848;4.334;2024-01-30T11:49:16;3.90;;;1.47;;
14474;SDS011;7323;50.848;4.334;2024-01-30T11:51:45;4.43;;;1.27;;
14474;SDS011;7323;50.848;4.334;2024-01-30T11:54:11;3.77;;;1.30;;
14474;SDS011;7323;50.848;4.334;2024-01-30T11:56:37;4.23;;;1.40;;
14474;SDS011;7323;50.848;4.334;2024-01-30T11:59:03;4.17;;;1.30;;
14474;SDS011;7323;50.848;4.334;2024-01-30T12:01:29;3.70;;;1.23;;
14474;SDS011;7323;50.848;4.334;2024-01-30T12:03:58;4.23;;;1.00;;
14474;SDS011;7323;50.848;4.334;2024-01-30T12:06:25;3.63;;;1.20;;
14474;SDS011;7323;50.848;4.334;2024-01-30T12:08:58;2.90;;;1.20;;
14474;SDS011;7323;50.848;4.334;2024-01-30T12:11:26;6.03;;;1.70;;
14474;SDS011;7323;50.848;4.334;2024-01-30T12:13:55;4.90;;;0.93;;
14474;SDS011;7323;50.848;4.334;2024-01-30T12:16:21;4.10;;;1.17;;
14474;SDS011;7323;50.848;4.334;2024-01-30T12:18:47;6.20;;;1.33;;
14474;SDS011;7323;50.848;4.334;2024-01-30T12:21:16;3.30;;;1.20;;
14474;SDS011;7323;50.848;4.334;2024-01-30T12:23:43;7.97;;;1.20;;
14474;SDS011;7323;50.848;4.334;2024-01-30T12:26:09;3.10;;;1.33;;
14474;SDS011;7323;50.848;4.334;2024-01-30T12:34:01;3.87;;;1.30;;
14474;SDS011;7323;50.848;4.334;2024-01-30T12:36:28;3.73;;;1.27;;
14474;SDS011;7323;50.848;4.334;2024-01-30T12:38:56;2.13;;;0.97;;
14474;SDS011;7323;50.848;4.334;2024-01-30T12:41:22;5.30;;;1.40;;
14474;SDS011;7323;50.848;4.334;2024-01-30T12:43:53;3.40;;;1.00;;
14474;SDS011;7323;50.848;4.334;2024-01-30T12:46:19;3.90;;;1.13;;
14474;SDS011;7323;50.848;4.334;2024-01-30T12:48:44;2.60;;;1.00;;
14474;SDS011;7323;50.848;4.334;2024-01-30T12:51:10;3.73;;;1.20;;
14474;SDS011;7323;50.848;4.334;2024-01-30T12:53:36;4.67;;;1.20;;
14474;SDS011;7323;50.848;4.334;2024-01-30T12:56:02;2.93;;;0.93;;
14474;SDS011;7323;50.848;4.334;2024-01-30T12:58:28;5.10;;;1.37;;
14474;SDS011;7323;50.848;4.334;2024-01-30T13:00:53;5.87;;;1.97;;
14474;SDS011;7323;50.848;4.334;2024-01-30T13:03:19;4.97;;;1.17;;
14474;SDS011;7323;50.848;4.334;2024-01-30T13:05:45;3.50;;;1.20;;
14474;SDS011;7323;50.848;4.334;2024-01-30T13:08:11;4.07;;;1.50;;
14474;SDS011;7323;50.848;4.334;2024-01-30T13:10:36;4.07;;;1.40;;
14474;SDS011;7323;50.848;4.334;2024-01-30T13:13:02;4.70;;;1.23;;
14474;SDS011;7323;50.848;4.334;2024-01-30T13:15:28;6.83;;;1.30;;
14474;SDS011;7323;50.848;4.334;2024-01-30T13:17:54;8.20;;;1.57;;
14474;SDS011;7323;50.848;4.334;2024-01-30T13:20:19;4.73;;;1.60;;
14474;SDS011;7323;50.848;4.334;2024-01-30T13:22:48;5.10;;;1.50;;
14474;SDS011;7323;50.848;4.334;2024-01-30T13:25:15;4.43;;;1.30;;
14474;SDS011;7323;50.848;4.334;2024-01-30T13:27:41;2.93;;;1.20;;
14474;SDS011;7323;50.848;4.334;2024-01-30T13:30:07;8.80;;;2.00;;
14474;SDS011;7323;50.848;4.334;2024-01-30T13:32:34;5.73;;;1.60;;
14474;SDS011;7323;50.848;4.334;2024-01-30T13:35:00;6.67;;;1.90;;
14474;SDS011;7323;50.848;4.334;2024-01-30T13:37:26;4.93;;;1.43;;
14474;SDS011;7323;50.848;4.334;2024-01-30T13:39:51;4.80;;;1.37;;
14474;SDS011;7323;50.848;4.334;2024-01-30T13:42:17;5.83;;;1.53;;
14474;SDS011;7323;50.848;4.334;2024-01-30T13:44:43;2.07;;;1.10;;
14474;SDS011;7323;50.848;4.334;2024-01-30T13:47:09;3.90;;;1.37;;
14474;SDS011;7323;50.848;4.334;2024-01-30T13:49:35;2.57;;;1.10;;
14474;SDS011;7323;50.848;4.334;2024-01-30T13:52:00;5.77;;;1.60;;
14474;SDS011;7323;50.848;4.334;2024-01-30T13:54:26;3.63;;;1.50;;
14474;SDS011;7323;50.848;4.334;2024-01-30T13:56:52;3.83;;;1.50;;
14474;SDS011;7323;50.848;4.334;2024-01-30T13:59:17;4.50;;;1.60;;
14474;SDS011;7323;50.848;4.334;2024-01-30T14:01:48;4.20;;;1.23;;
14474;SDS011;7323;50.848;4.334;2024-01-30T14:04:14;4.87;;;1.30;;
14474;SDS011;7323;50.848;4.334;2024-01-30T14:06:40;4.20;;;1.30;;
14474;SDS011;7323;50.848;4.334;2024-01-30T14:09:06;2.20;;;1.00;;
14474;SDS011;7323;50.848;4.334;2024-01-30T14:11:32;5.57;;;1.30;;
14474;SDS011;7323;50.848;4.334;2024-01-30T14:13:57;2.87;;;1.00;;
14474;SDS011;7323;50.848;4.334;2024-01-30T14:16:24;3.70;;;1.13;;
14474;SDS011;7323;50.848;4.334;2024-01-30T14:18:50;3.93;;;1.20;;
14474;SDS011;7323;50.848;4.334;2024-01-30T14:21:15;2.17;;;1.03;;
14474;SDS011;7323;50.848;4.334;2024-01-30T14:23:41;3.87;;;1.20;;
14474;SDS011;7323;50.848;4.334;2024-01-30T14:26:07;5.90;;;1.47;;
14474;SDS011;7323;50.848;4.334;2024-01-30T14:28:32;2.87;;;0.93;;
14474;SDS011;7323;50.848;4.334;2024-01-30T14:30:58;3.37;;;1.30;;
14474;SDS011;7323;50.848;4.334;2024-01-30T14:33:24;5.00;;;1.40;;
14474;SDS011;7323;50.848;4.334;2024-01-30T14:35:51;4.57;;;1.30;;
14474;SDS011;7323;50.848;4.334;2024-01-30T14:38:16;3.07;;;1.33;;
14474;SDS011;7323;50.848;4.334;2024-01-30T14:40:42;4.87;;;1.57;;
14474;SDS011;7323;50.848;4.334;2024-01-30T14:43:08;5.43;;;1.50;;
14474;SDS011;7323;50.848;4.334;2024-01-30T14:45:34;2.37;;;1.30;;
14474;SDS011;7323;50.848;4.334;2024-01-30T14:47:59;2.87;;;1.23;;
14474;SDS011;7323;50.848;4.334;2024-01-30T14:50:25;5.07;;;1.47;;
14474;SDS011;7323;50.848;4.334;2024-01-30T14:52:53;6.07;;;1.77;;
14474;SDS011;7323;50.848;4.334;2024-01-30T14:55:19;4.87;;;1.40;;
14474;SDS011;7323;50.848;4.334;2024-01-30T14:57:48;4.20;;;1.40;;
14474;SDS011;7323;50.848;4.334;2024-01-30T15:00:14;4.83;;;2.00;;